This is the latest recevied weather packets stored in our database for station/object VE8SKI. If no packets are shown the sender has not sent any weather packets the latest 10 day(s).
| Time | Temp. | Humidity | Pressure | Rain* | Wind** | Luminosity | Snow |
|---|---|---|---|---|---|---|---|
| 1777307376 | -3.89° C | 71% | 1022.4 hPa | 0 mm | 0.45 m/s, 97° | - | - |
| 1777307078 | -4.44° C | 72% | 1022.5 hPa | 0 mm | 0.45 m/s, 359° | - | - |
| 1777306774 | -5° C | 70% | 1022.6 hPa | 0 mm | 1.79 m/s, 280° | - | - |
| 1777306474 | -3.89° C | 69% | 1022.6 hPa | 0 mm | 1.34 m/s, 359° | - | - |
| 1777306174 | -3.89° C | 69% | 1022.7 hPa | 0 mm | 0.89 m/s, 195° | - | - |
| 1777305875 | -3.89° C | 67% | 1022.8 hPa | 0 mm | 0 m/s | - | - |
| 1777305575 | -3.89° C | 67% | 1023 hPa | 0 mm | 0.45 m/s, 120° | - | - |
| 1777305275 | -3.89° C | 67% | 1023.1 hPa | 0 mm | 0.89 m/s, 359° | - | - |
| 1777304973 | -4.44° C | 67% | 1023.3 hPa | 0 mm | 0.89 m/s, 89° | - | - |
| 1777304374 | -4.44° C | 68% | 1023.5 hPa | 0 mm | 0.45 m/s, 77° | - | - |
| 1777304074 | -5° C | 68% | 1023.8 hPa | 0 mm | 1.34 m/s, 86° | - | - |
| 1777303774 | -5° C | 69% | 1023.9 hPa | 0 mm | 1.34 m/s, 145° | - | - |
| 1777303474 | -5.56° C | 68% | 1024 hPa | 0 mm | 1.79 m/s, 191° | - | - |
| 1777303172 | -5° C | 68% | 1024.2 hPa | 0 mm | 1.34 m/s, 125° | - | - |
| 1777302872 | -5.56° C | 68% | 1024.4 hPa | 0 mm | 1.79 m/s, 82° | - | - |
| 1777302572 | -5.56° C | 68% | 1024.6 hPa | 0 mm | 0.89 m/s, 110° | - | - |
| 1777302272 | -5.56° C | 68% | 1024.8 hPa | 0 mm | 0.89 m/s, 139° | - | - |
| 1777301972 | -5.56° C | 68% | 1025 hPa | 0 mm | 0.89 m/s, 91° | - | - |
| 1777301673 | -5.56° C | 69% | 1025 hPa | 0 mm | 0.89 m/s, 105° | - | - |
| 1777301370 | -6.11° C | 69% | 1025.1 hPa | 0 mm | 1.34 m/s, 114° | - | - |
| 1777301070 | -6.11° C | 69% | 1025.3 hPa | 0 mm | 1.34 m/s, 113° | - | - |
| 1777300770 | -6.11° C | 70% | 1025.5 hPa | 0 mm | 1.34 m/s, 122° | - | - |
| 1777300470 | -6.67° C | 70% | 1025.7 hPa | 0 mm | 0.89 m/s, 58° | - | - |
| 1777300171 | -6.67° C | 71% | 1025.8 hPa | 0 mm | 1.34 m/s, 134° | - | - |
| 1777299871 | -6.67° C | 72% | 1026 hPa | 0 mm | 1.79 m/s, 210° | - | - |
* Rain latest hour (hover to see other rain measurements)
** Current wind speed in m/s (hover to see current wind gust speed)